Flight Track Log - Related Links

Times and Time Zones

All times are in EDT time to prevent confusion due to time zone crossing. See the FLG3395 flight status page for this flight to view local times or setup timezone preferences in your user account.

Time Position Orientation Groundspeed Altitude Reporting Facility
EDT Latitude Longitude Course Direction KTS MPH feet Rate Location/Type
Sat 10:10:23 PM 40.6000 -73.8000 270° West 164 189 1,700  Level New York TRACON
Sat 10:11:23 PM 40.5500 -73.8333 207° Southwest 217 250 3,600 2,050 Climbing New York TRACON
Sat 10:12:00 PM 40.4449 -74.0661 233° Southwest  Level FlightAware Approximate
Sat 10:12:23 PM 40.4833 -73.8833 210° Southwest 272 313 5,800  Level New York TRACON
Sat 10:13:00 PM 40.3810 -74.1755 233° Southwest  Level FlightAware Approximate
Sat 10:13:23 PM 40.4500 -73.9667 242° Southwest 272 313 8,700  Level New York TRACON
Sat 10:14:00 PM 40.3164 -74.2839 232° Southwest  Level FlightAware Approximate
Sat 10:15:00 PM 40.2500 -74.3880 270° West  Level FlightAware Approximate
Sat 10:15:40 PM 40.3522 -74.1672 237° Southwest 307 353 12,700  Level New York Center
Sat 10:16:41 PM 40.3031 -74.2817 241° Southwest 348 400 14,300 1,462 Climbing New York Center
Sat 10:17:39 PM 40.2536 -74.4044 242° Southwest 370 426 15,600 1,525 Climbing New York Center
Sat 10:18:39 PM 40.2367 -74.5394 261° West 384 442 17,300 1,488 Climbing New York Center
Sat 10:19:40 PM 40.2197 -74.6825 261° West 391 450 18,600 1,220 Climbing New York Center
Sat 10:20:42 PM 40.2006 -74.8172 259° West 414 476 19,800 706 Climbing New York Center
Sat 10:21:39 PM 40.1844 -74.9794 263° West 414 476 20,000 103 Climbing New York Center
Sat 10:22:39 PM 40.1644 -75.1275 260° West 420 483 20,000  Level New York Center
Sat 10:23:39 PM 40.1464 -75.2758 261° West 426 490 20,000  Level New York Center
Sat 10:24:40 PM 40.1117 -75.4175 252° West 421 484 20,000  Level New York Center
Sat 10:25:41 PM 40.0361 -75.5317 229° Southwest 411 473 20,000 -49 Level New York Center
Sat 10:26:42 PM 39.9606 -75.6458 229° Southwest 411 473 19,900 -610 Descending New York Center
Sat 10:27:39 PM 39.8919 -75.7464 228° Southwest 421 484 18,800 -1,228 Descending New York Center
Sat 10:29:33 PM 39.7500 -75.9667 230° Southwest 398 458 16,400 -1,276 Descending Potomac TRACON
Sat 10:30:33 PM 39.6667 -76.0833 227° Southwest 393 452 15,100 -1,250 Descending Potomac TRACON
Sat 10:31:33 PM 39.6000 -76.1833 229° Southwest 390 449 13,900 -1,200 Descending Potomac TRACON
Sat 10:32:33 PM 39.5333 -76.3000 233° Southwest 383 441 12,700 -1,000 Descending Potomac TRACON
Sat 10:33:27 PM 39.4833 -76.3833 232° Southwest 373 429 12,000 -470 Descending Potomac TRACON
Sat 10:34:28 PM 39.4000 -76.4667 218° Southwest 375 432 11,800 -595 Descending Potomac TRACON
Sat 10:35:28 PM 39.3167 -76.5333 212° Southwest 368 423 10,800 -900 Descending Potomac TRACON
Sat 10:36:28 PM 39.2333 -76.6167 218° Southwest 313 360 10,000 -397 Descending Potomac TRACON
Sat 10:37:29 PM 39.1667 -76.6667 210° Southwest 282 325 10,000  Level Potomac TRACON
Sat 10:38:29 PM 39.1333 -76.7667 247° West 283 326 10,000 -545 Level Potomac TRACON
Sat 10:39:41 PM 39.1000 -76.8667 247° West 278 320 8,800 -1,300 Descending Potomac TRACON
Sat 10:40:29 PM 39.0833 -76.9500 256° West 273 314 7,400 -1,421 Descending Potomac TRACON
Sat 10:41:35 PM 39.0500 -77.0500 247° West 262 302 6,100 -1,500 Descending Potomac TRACON
Sat 10:42:29 PM 39.0333 -77.1167 252° West 254 292 4,400 -1,300 Descending Potomac TRACON
Sat 10:43:35 PM 39.0000 -77.2000 243° Southwest 219 252 3,500 -857 Descending Potomac TRACON
Sat 10:44:35 PM 38.9667 -77.1667 142° Southeast 168 193 2,600 -895 Descending Potomac TRACON
Sat 10:45:29 PM 38.9333 -77.1333 142° Southeast 167 192 1,800 -889 Descending Potomac TRACON

Login

Don't have an account? Register now (free) for customized features, flight alerts, and more!